Hovedside
METAR-TAF:

METAR-TAF

Lufthavner :

Växjö, Sverige

Växjö lufthavn

breddegrad: 56-51N, lengdegrad: 014-50E, høyde over havet: 199 m

Gjeldene værobservasjon

Denne rapporten ble laget for 1 time og 11 minutter siden, klokken 09:50 UTC
Vind 8 kt fra Sørvest, skiftende mellom Sør og Vest
Temperatur 8°C
Luftfuktighet 49%
Trykk 1009 hPa
Sikt 10 km eller mer
Få skyer i en høyde av 4100 ft
Spredte skyer i en høyde av 4700 ft

METAR: ESMX 270950Z 22008KT 180V260 9999 FEW041 SCT047 08/M02 Q1009

Tid: 13:01 (11:01 UTC)

Varsel

Denne rapporten ble laget for 2 timer og 31 minutter siden, klokken 08:30 UTC
Varsel gyldig fra 27. klokken 09 UTC til 27. klokken 18 UTC
Vind 7 kt fra Sørvest
Sikt 10 km eller mer
Spredte skyer i en høyde av 4000 ft

TAF: ESMX 270830Z 2709/2718 22007KT 9999 SCT040

Værobservasjoner og værvarsel for over 4000 flyplasser (METAR- og TAF-rapporter).

Tilgjengelige stasjoner er representert av de røde og gule prikkene på kartet.

Hold musepekeren over prikken for å se navnet på stasjonen.

Klikk så for å se værobservasjoner og -varsler.

For å forandre kartet kan du klikke på den grønne knappen med svart kryss for å zoome inn, på den grønne knappen med strek for å zoome ut, eller på de grønne pilene for å se tilstøtende kart.


METAR-TAF: